Time;durP1;ratioP1;P1;durP2;ratioP2;P2;SDS_P1;SDS_P2;PMS_P1;PMS_P2;Temp;Humidity;BMP_temperature;BMP_pressure;BME280_temperature;BME280_humidity;BME280_pressure;Samples;Min_cycle;Max_cycle;Signal;HPM_P1;HPM_P2
2023/03/11 00:01:15;;;;;;;139.73;38.33;;;1.00;99.90;;;;;;5178771;28;20588;-48
2023/03/11 00:03:46;;;;;;;119.33;37.00;;;1.10;99.90;;;;;;5191101;28;20238;-47
2023/03/11 00:06:16;;;;;;;85.10;30.83;;;1.10;99.90;;;;;;5179397;28;20191;-48
2023/03/11 00:08:47;;;;;;;94.30;31.53;;;1.10;99.90;;;;;;5171859;28;20230;-48
2023/03/11 00:11:18;;;;;;;136.77;41.27;;;1.10;99.90;;;;;;5179121;28;20262;-52
2023/03/11 00:13:49;;;;;;;110.43;34.53;;;1.10;99.90;;;;;;5181993;28;20227;-50
2023/03/11 00:16:19;;;;;;;95.43;32.87;;;1.20;99.90;;;;;;5173143;28;20474;-50
2023/03/11 00:18:51;;;;;;;116.13;37.63;;;1.20;99.90;;;;;;5179547;28;20196;-47
2023/03/11 00:21:22;;;;;;;99.93;32.60;;;1.20;99.90;;;;;;5171200;28;20200;-47
2023/03/11 00:23:52;;;;;;;96.83;33.17;;;1.10;99.90;;;;;;5178584;28;20444;-47
2023/03/11 00:26:23;;;;;;;69.30;28.10;;;1.10;99.90;;;;;;5175088;28;20189;-49
2023/03/11 00:28:54;;;;;;;59.90;25.30;;;1.00;99.90;;;;;;5181371;28;20221;-47
2023/03/11 00:31:25;;;;;;;53.03;25.40;;;0.90;99.90;;;;;;5176191;28;20200;-47
2023/03/11 00:33:56;;;;;;;37.47;18.00;;;0.80;99.90;;;;;;5175971;28;20465;-52
2023/03/11 00:36:33;;;;;;;66.77;26.30;;;0.80;99.90;;;;;;5171073;28;20444;-47
2023/03/11 00:39:07;;;;;;;46.60;21.43;;;0.80;99.90;;;;;;5173342;28;21786;-46
2023/03/11 00:41:37;;;;;;;52.13;21.90;;;0.80;99.90;;;;;;5184011;28;20437;-47
2023/03/11 00:44:08;;;;;;;57.83;24.00;;;0.80;99.90;;;;;;5182571;28;21118;-51
2023/03/11 00:46:39;;;;;;;69.13;24.27;;;0.70;99.90;;;;;;5173178;28;20227;-47
2023/03/11 00:49:10;;;;;;;56.83;22.73;;;0.70;99.90;;;;;;5175924;28;20211;-47
2023/03/11 00:51:40;;;;;;;38.97;19.27;;;0.70;99.90;;;;;;5176581;28;20184;-47
2023/03/11 00:54:11;;;;;;;34.10;18.13;;;0.70;99.90;;;;;;5171095;28;20448;-46
2023/03/11 00:56:41;;;;;;;55.73;25.07;;;0.60;99.90;;;;;;5174872;28;20232;-47
2023/03/11 00:59:12;;;;;;;56.20;25.03;;;0.60;99.90;;;;;;5174474;28;20687;-46
2023/03/11 01:01:43;;;;;;;41.93;22.50;;;0.60;99.90;;;;;;5173216;28;20188;-49
2023/03/11 01:04:14;;;;;;;89.77;32.00;;;0.60;99.90;;;;;;5181756;28;20184;-50
2023/03/11 01:06:44;;;;;;;78.13;31.00;;;0.50;99.90;;;;;;5170636;28;20684;-48
2023/03/11 01:09:15;;;;;;;37.90;21.27;;;0.50;99.90;;;;;;5171595;28;21066;-48
2023/03/11 01:11:45;;;;;;;62.10;29.03;;;0.50;99.90;;;;;;5176956;28;20188;-49
2023/03/11 01:14:17;;;;;;;83.93;31.30;;;0.50;99.90;;;;;;5173984;28;20181;-47
2023/03/11 01:16:48;;;;;;;98.17;36.47;;;0.60;99.90;;;;;;5173174;28;20190;-48
2023/03/11 01:19:18;;;;;;;82.90;32.57;;;0.50;99.90;;;;;;5194732;28;20462;-48
2023/03/11 01:21:49;;;;;;;75.73;32.00;;;0.60;99.90;;;;;;5175163;28;20177;-46
2023/03/11 01:24:19;;;;;;;78.63;33.07;;;0.50;99.90;;;;;;5180224;28;20214;-49
2023/03/11 01:26:50;;;;;;;83.87;33.57;;;0.60;99.90;;;;;;5175375;28;20188;-51
2023/03/11 01:29:21;;;;;;;66.80;28.37;;;0.50;99.90;;;;;;5183005;28;20226;-47
2023/03/11 01:31:51;;;;;;;91.60;34.93;;;0.60;99.90;;;;;;5180705;28;20186;-47
2023/03/11 01:34:22;;;;;;;69.90;29.63;;;0.60;99.90;;;;;;5185323;28;20243;-48
2023/03/11 01:36:52;;;;;;;72.17;30.73;;;0.50;99.90;;;;;;5173858;28;20185;-47
2023/03/11 01:39:23;;;;;;;78.67;30.13;;;0.60;99.90;;;;;;5180960;28;20204;-54
2023/03/11 01:41:55;;;;;;;47.07;22.17;;;0.60;99.90;;;;;;5177815;28;20740;-51
2023/03/11 01:44:25;;;;;;;47.27;23.53;;;0.60;99.90;;;;;;5169967;28;20220;-47
2023/03/11 01:46:58;;;;;;;38.87;19.00;;;0.60;99.90;;;;;;5170107;28;20487;-45
2023/03/11 01:49:29;;;;;;;45.10;19.97;;;0.60;99.90;;;;;;5179850;28;20545;-53
2023/03/11 01:52:02;;;;;;;35.90;16.70;;;0.50;99.90;;;;;;5185182;28;20439;-52
2023/03/11 01:54:40;;;;;;;26.73;14.00;;;0.60;99.90;;;;;;5177460;28;20630;-47
2023/03/11 01:57:12;;;;;;;36.77;13.90;;;0.50;99.90;;;;;;5170831;28;20657;-48
2023/03/11 01:59:49;;;;;;;20.33;11.27;;;0.50;99.90;;;;;;5174098;28;20464;-47
2023/03/11 02:02:42;;;;;;;16.27;8.93;;;0.60;99.90;;;;;;5178364;28;20451;-49
2023/03/11 02:05:13;;;;;;;16.63;9.10;;;0.60;99.90;;;;;;5176120;28;20514;-48
2023/03/11 02:07:44;;;;;;;12.83;7.90;;;0.70;99.90;;;;;;5191753;28;20494;-48
2023/03/11 02:10:15;;;;;;;9.83;6.83;;;0.60;99.90;;;;;;5180387;28;20462;-49
2023/03/11 02:12:48;;;;;;;9.17;5.80;;;0.60;99.90;;;;;;5174986;28;20432;-48
2023/03/11 02:15:19;;;;;;;4.83;4.53;;;0.60;99.90;;;;;;5180427;28;20282;-47
2023/03/11 02:17:49;;;;;;;6.03;4.30;;;0.70;99.90;;;;;;5169871;28;20495;-47
2023/03/11 02:20:40;;;;;;;8.03;4.80;;;0.60;99.90;;;;;;5177644;28;20320;-47
2023/03/11 02:23:14;;;;;;;3.67;3.37;;;0.60;99.90;;;;;;5175410;28;20569;-47
2023/03/11 02:26:12;;;;;;;4.10;3.80;;;0.70;99.90;;;;;;5175108;28;20432;-46
2023/03/11 02:28:44;;;;;;;5.57;4.20;;;0.60;99.90;;;;;;5169321;28;20895;-47
2023/03/11 02:31:15;;;;;;;3.37;3.17;;;0.60;99.90;;;;;;5182923;28;20879;-47
2023/03/11 02:33:49;;;;;;;4.07;3.70;;;0.60;99.90;;;;;;5180022;28;20435;-46
2023/03/11 02:36:40;;;;;;;3.63;3.33;;;0.70;99.90;;;;;;5190356;28;20947;-46
2023/03/11 02:39:10;;;;;;;4.63;3.37;;;0.70;99.90;;;;;;5177746;28;20486;-46
2023/03/11 02:41:44;;;;;;;5.03;4.57;;;0.70;99.90;;;;;;5185955;28;20454;-47
2023/03/11 02:44:15;;;;;;;4.30;4.00;;;0.70;99.90;;;;;;5175307;28;20223;-53
2023/03/11 02:46:46;;;;;;;4.67;4.27;;;0.70;99.90;;;;;;5174108;28;20487;-47
2023/03/11 02:49:19;;;;;;;3.90;3.70;;;0.70;99.90;;;;;;5177875;28;20219;-46
2023/03/11 02:51:51;;;;;;;6.17;5.13;;;0.70;99.90;;;;;;5174471;28;20440;-46
2023/03/11 02:54:21;;;;;;;5.20;4.30;;;0.70;99.90;;;;;;5172902;28;20437;-46
2023/03/11 02:56:52;;;;;;;3.67;3.47;;;0.70;99.90;;;;;;5180547;28;20431;-47
2023/03/11 02:59:24;;;;;;;5.23;4.60;;;0.70;99.90;;;;;;5176954;28;20208;-47
2023/03/11 03:01:55;;;;;;;5.83;4.50;;;0.70;99.90;;;;;;5178865;28;20637;-46
2023/03/11 03:04:25;;;;;;;4.30;3.90;;;0.80;99.90;;;;;;5179762;28;20506;-47
2023/03/11 03:06:56;;;;;;;3.83;3.50;;;0.80;99.90;;;;;;5170453;28;20440;-46
2023/03/11 03:09:26;;;;;;;4.00;3.80;;;0.80;99.90;;;;;;5153643;28;20219;-47
2023/03/11 03:11:57;;;;;;;4.37;3.97;;;0.70;99.90;;;;;;5168439;28;20189;-47
2023/03/11 03:14:28;;;;;;;4.20;4.00;;;0.80;99.90;;;;;;5172507;28;20189;-48
2023/03/11 03:16:58;;;;;;;4.80;4.27;;;0.70;99.90;;;;;;5175047;28;20216;-46
2023/03/11 03:19:29;;;;;;;3.43;3.17;;;0.70;99.90;;;;;;5174793;28;20560;-47
2023/03/11 03:22:00;;;;;;;6.67;5.93;;;0.80;99.90;;;;;;5182314;28;20191;-46
2023/03/11 03:24:30;;;;;;;7.53;6.60;;;0.70;99.90;;;;;;5170063;28;20184;-48
2023/03/11 03:27:01;;;;;;;6.03;5.13;;;0.70;99.90;;;;;;5180208;28;20185;-48
2023/03/11 03:29:32;;;;;;;6.40;5.43;;;0.80;99.90;;;;;;5181611;28;20537;-47
2023/03/11 03:32:02;;;;;;;6.50;5.90;;;0.80;99.90;;;;;;5170379;28;20267;-48
2023/03/11 03:34:33;;;;;;;8.33;5.63;;;0.70;99.90;;;;;;5177584;28;20263;-50
2023/03/11 03:37:05;;;;;;;5.40;4.90;;;0.70;99.90;;;;;;5170685;28;20273;-48
2023/03/11 03:39:35;;;;;;;5.73;5.27;;;0.70;99.90;;;;;;5213059;23;20208;-52
2023/03/11 03:42:06;;;;;;;7.67;6.33;;;0.70;99.90;;;;;;5170133;28;20515;-53
2023/03/11 03:44:37;;;;;;;4.87;4.47;;;0.70;99.90;;;;;;5164066;28;20196;-53
2023/03/11 03:47:08;;;;;;;9.63;6.40;;;0.70;99.90;;;;;;5148890;28;20444;-51
2023/03/11 03:49:39;;;;;;;8.30;4.40;;;0.70;99.90;;;;;;5141452;28;20279;-53
2023/03/11 03:52:09;;;;;;;4.50;4.20;;;0.70;99.90;;;;;;5148010;28;20178;-51
2023/03/11 03:54:40;;;;;;;6.80;4.53;;;0.80;99.90;;;;;;5150818;28;20170;-52
2023/03/11 03:57:11;;;;;;;6.53;5.07;;;0.70;99.90;;;;;;5150671;28;20189;-52
2023/03/11 03:59:41;;;;;;;8.63;5.77;;;0.80;99.90;;;;;;5140865;28;20304;-58
2023/03/11 04:02:12;;;;;;;5.47;5.07;;;0.80;99.90;;;;;;5150304;28;20181;-50
2023/03/11 04:04:43;;;;;;;8.50;7.00;;;0.90;99.90;;;;;;5141916;28;20209;-55
2023/03/11 04:07:13;;;;;;;12.50;7.73;;;0.70;99.90;;;;;;5161310;28;20216;-51
2023/03/11 04:09:45;;;;;;;8.93;6.90;;;0.70;99.90;;;;;;5142494;28;20190;-51
2023/03/11 04:12:19;;;;;;;11.80;6.83;;;0.70;99.90;;;;;;5144135;28;20217;-51
2023/03/11 04:14:50;;;;;;;12.73;7.30;;;0.70;99.90;;;;;;5145380;28;20424;-53
2023/03/11 04:17:20;;;;;;;13.30;7.70;;;0.70;99.90;;;;;;5147602;28;20973;-52
2023/03/11 04:19:51;;;;;;;11.33;7.57;;;0.70;99.90;;;;;;5146533;28;20721;-53
2023/03/11 04:22:22;;;;;;;8.23;6.33;;;0.70;99.90;;;;;;5143138;28;20222;-52
2023/03/11 04:24:52;;;;;;;8.53;6.03;;;0.80;99.90;;;;;;5143638;28;20186;-53
2023/03/11 04:27:24;;;;;;;16.93;8.60;;;0.80;99.90;;;;;;5149976;28;20205;-55
2023/03/11 04:29:55;;;;;;;13.57;8.07;;;0.70;99.90;;;;;;5142868;28;20213;-52
2023/03/11 04:32:26;;;;;;;14.10;8.00;;;0.70;99.90;;;;;;5144397;28;20480;-53
2023/03/11 04:34:56;;;;;;;8.13;7.13;;;0.70;99.90;;;;;;5144432;28;20188;-52
2023/03/11 04:37:28;;;;;;;15.53;8.53;;;0.60;99.90;;;;;;5150686;28;20188;-53
2023/03/11 04:39:58;;;;;;;13.00;7.60;;;0.60;99.90;;;;;;5142828;28;20217;-52
2023/03/11 04:42:29;;;;;;;7.87;6.00;;;0.60;99.90;;;;;;5150368;28;20433;-52
2023/03/11 04:45:00;;;;;;;7.40;6.60;;;0.70;99.90;;;;;;5143094;28;20188;-52
2023/03/11 04:47:30;;;;;;;18.07;8.07;;;0.70;99.90;;;;;;5142904;28;21016;-52
2023/03/11 04:50:02;;;;;;;7.67;6.40;;;0.70;99.90;;;;;;5140218;28;20728;-52
2023/03/11 04:52:33;;;;;;;11.90;6.67;;;0.70;99.90;;;;;;5151041;28;20181;-52
2023/03/11 04:55:04;;;;;;;8.83;6.37;;;0.70;99.90;;;;;;5148219;28;20949;-52
2023/03/11 04:57:35;;;;;;;11.93;6.60;;;0.70;99.90;;;;;;5144366;28;20225;-53
2023/03/11 05:00:10;;;;;;;7.17;6.07;;;0.70;99.90;;;;;;5148461;28;20551;-52
2023/03/11 05:02:41;;;;;;;7.00;6.27;;;0.60;99.90;;;;;;5160420;28;20250;-53
2023/03/11 05:05:12;;;;;;;11.10;6.57;;;0.60;99.90;;;;;;5144107;28;21236;-53
2023/03/11 05:07:44;;;;;;;7.20;6.53;;;0.60;99.90;;;;;;5149721;28;20545;-53
2023/03/11 05:10:21;;;;;;;8.33;6.03;;;0.60;99.90;;;;;;5148993;28;20722;-52
2023/03/11 05:12:52;;;;;;;10.87;6.57;;;0.70;99.90;;;;;;5155766;28;20451;-51
2023/03/11 05:15:23;;;;;;;11.70;7.37;;;0.60;99.90;;;;;;5152186;28;20438;-51
2023/03/11 05:17:53;;;;;;;8.80;6.33;;;0.70;99.90;;;;;;5154249;28;20971;-52
2023/03/11 05:20:24;;;;;;;11.83;7.47;;;0.70;99.90;;;;;;5145497;28;20248;-54
2023/03/11 05:22:55;;;;;;;9.93;6.53;;;0.70;99.90;;;;;;5147204;28;20190;-51
2023/03/11 05:25:26;;;;;;;10.00;6.30;;;0.70;99.90;;;;;;5151129;28;21036;-53
2023/03/11 05:27:56;;;;;;;9.70;6.60;;;0.70;99.90;;;;;;5149572;28;20258;-53
2023/03/11 05:30:27;;;;;;;7.63;5.70;;;0.60;99.90;;;;;;5150471;28;20269;-53
2023/03/11 05:32:58;;;;;;;6.93;6.23;;;0.60;99.90;;;;;;5160419;28;20181;-53
2023/03/11 05:35:29;;;;;;;11.33;6.70;;;0.70;99.90;;;;;;5149005;28;20470;-53
2023/03/11 05:37:59;;;;;;;10.53;6.80;;;0.70;99.90;;;;;;5154412;28;20216;-52
2023/03/11 05:40:30;;;;;;;14.30;6.90;;;0.60;99.90;;;;;;5155324;28;20219;-53
2023/03/11 05:43:01;;;;;;;9.70;6.63;;;0.70;99.90;;;;;;5150096;28;20221;-53
2023/03/11 05:45:31;;;;;;;7.67;6.37;;;0.80;99.90;;;;;;5154412;28;20185;-53
2023/03/11 05:48:02;;;;;;;13.23;7.33;;;0.80;99.90;;;;;;5149677;28;20201;-54
2023/03/11 05:50:33;;;;;;;13.83;7.67;;;0.70;99.90;;;;;;5149251;28;20208;-53
2023/03/11 05:53:03;;;;;;;11.27;6.47;;;0.70;99.90;;;;;;5148406;28;20192;-53
2023/03/11 05:55:34;;;;;;;13.37;7.23;;;0.70;99.90;;;;;;5151998;28;20220;-52
2023/03/11 05:58:05;;;;;;;13.10;7.00;;;0.80;99.90;;;;;;5157441;28;20192;-51
2023/03/11 06:00:36;;;;;;;13.03;7.07;;;0.70;99.90;;;;;;5148668;28;20204;-52
2023/03/11 06:03:06;;;;;;;9.40;6.27;;;0.70;99.90;;;;;;5154606;28;20195;-52
2023/03/11 06:05:44;;;;;;;11.27;7.40;;;0.80;99.90;;;;;;5146152;28;20186;-54
2023/03/11 06:08:15;;;;;;;7.80;6.50;;;0.80;99.90;;;;;;5146842;28;20202;-52
2023/03/11 06:10:46;;;;;;;9.87;7.30;;;0.80;99.90;;;;;;5150879;28;20492;-52
2023/03/11 06:13:17;;;;;;;13.73;8.70;;;0.90;99.90;;;;;;5161657;28;20441;-52
2023/03/11 06:15:48;;;;;;;12.50;7.03;;;0.80;99.90;;;;;;5154983;28;20626;-52
2023/03/11 06:18:19;;;;;;;19.47;8.10;;;0.80;99.90;;;;;;5144016;28;20223;-51
2023/03/11 06:20:49;;;;;;;9.03;6.20;;;0.70;99.90;;;;;;5154275;28;20229;-52
2023/03/11 06:23:20;;;;;;;12.20;7.80;;;0.80;99.90;;;;;;5152311;28;20189;-52
2023/03/11 06:25:59;;;;;;;12.83;8.47;;;0.80;99.90;;;;;;5144071;28;20194;-53
2023/03/11 06:28:30;;;;;;;18.87;7.13;;;0.70;99.90;;;;;;5147692;28;20261;-52
2023/03/11 06:31:25;;;;;;;9.10;7.90;;;0.70;99.90;;;;;;5155960;28;20456;-52
2023/03/11 06:33:57;;;;;;;12.60;8.40;;;0.70;99.90;;;;;;5145472;28;20472;-52
2023/03/11 06:36:28;;;;;;;13.33;8.07;;;0.70;99.90;;;;;;5146421;28;20449;-51
2023/03/11 06:38:59;;;;;;;17.73;9.43;;;0.70;99.90;;;;;;5149414;28;20459;-51
2023/03/11 06:41:33;;;;;;;18.13;9.30;;;0.70;99.90;;;;;;5150082;28;20225;-56
2023/03/11 06:44:04;;;;;;;25.23;11.70;;;0.70;99.90;;;;;;5146608;28;20216;-52
2023/03/11 06:46:34;;;;;;;25.13;10.73;;;0.70;99.90;;;;;;5146813;28;20520;-53
2023/03/11 06:49:05;;;;;;;21.87;10.73;;;0.70;99.90;;;;;;5138741;28;20246;-55
2023/03/11 06:51:36;;;;;;;15.90;9.33;;;0.80;99.90;;;;;;5141700;28;20205;-52
2023/03/11 06:54:09;;;;;;;14.17;8.67;;;0.90;99.90;;;;;;5144494;28;20189;-52
2023/03/11 06:56:39;;;;;;;18.80;9.77;;;0.70;99.90;;;;;;5145469;28;20774;-53
2023/03/11 06:59:10;;;;;;;17.47;10.57;;;0.80;99.90;;;;;;5145383;28;20447;-51
2023/03/11 07:01:40;;;;;;;19.40;10.07;;;0.80;99.90;;;;;;5146110;28;20800;-52
2023/03/11 07:04:14;;;;;;;19.23;10.83;;;0.80;99.90;;;;;;5146818;28;20197;-54
2023/03/11 07:06:45;;;;;;;14.83;9.30;;;0.80;99.90;;;;;;5147947;28;20211;-54
2023/03/11 07:09:16;;;;;;;23.07;9.40;;;0.80;99.90;;;;;;5131316;28;21006;-54
2023/03/11 07:11:46;;;;;;;12.90;9.40;;;0.70;99.90;;;;;;5147996;28;20209;-52
2023/03/11 07:14:18;;;;;;;20.50;9.50;;;0.70;99.90;;;;;;5146545;28;20386;-54
2023/03/11 07:16:49;;;;;;;13.33;9.00;;;0.70;99.90;;;;;;5142558;28;20175;-55
2023/03/11 07:19:19;;;;;;;15.03;10.17;;;0.70;99.90;;;;;;5150457;28;20464;-54
2023/03/11 07:21:50;;;;;;;17.90;10.03;;;0.60;99.90;;;;;;5155136;28;20653;-55
2023/03/11 07:24:21;;;;;;;12.37;9.33;;;0.90;99.90;;;;;;5140636;28;20273;-53
2023/03/11 07:26:51;;;;;;;20.43;9.67;;;1.00;99.90;;;;;;5147073;28;20200;-53
2023/03/11 07:29:22;;;;;;;15.17;10.23;;;0.90;99.90;;;;;;5142370;28;20270;-52
2023/03/11 07:31:53;;;;;;;16.07;9.33;;;1.00;99.90;;;;;;5123457;28;20205;-52
2023/03/11 07:34:23;;;;;;;11.83;8.63;;;1.00;99.90;;;;;;5139991;28;20642;-54
2023/03/11 07:36:54;;;;;;;11.23;8.70;;;1.00;99.90;;;;;;5145467;28;20225;-54
2023/03/11 07:39:25;;;;;;;13.80;10.27;;;0.90;99.90;;;;;;5145914;28;20201;-50
2023/03/11 07:41:56;;;;;;;20.70;11.53;;;1.00;99.90;;;;;;5139295;28;20204;-52
2023/03/11 07:44:26;;;;;;;15.87;9.77;;;1.20;99.90;;;;;;5141274;28;20201;-52
2023/03/11 07:46:57;;;;;;;15.90;9.70;;;1.40;99.90;;;;;;5143659;28;20185;-53
2023/03/11 07:49:32;;;;;;;26.33;10.10;;;1.20;99.90;;;;;;5144393;28;20232;-52
2023/03/11 07:52:03;;;;;;;21.17;9.80;;;1.40;99.90;;;;;;5125141;28;20444;-52
2023/03/11 07:54:33;;;;;;;17.00;9.43;;;2.00;99.90;;;;;;5140212;28;20449;-53
2023/03/11 07:57:06;;;;;;;13.87;7.93;;;2.60;99.90;;;;;;5140599;28;20211;-52
2023/03/11 07:59:36;;;;;;;11.23;7.90;;;3.00;99.90;;;;;;5140627;28;20213;-54
2023/03/11 08:02:08;;;;;;;13.37;8.07;;;3.00;99.90;;;;;;5139673;28;20441;-53
2023/03/11 08:04:40;;;;;;;13.10;9.00;;;3.00;99.90;;;;;;5142833;28;20182;-54
2023/03/11 08:07:11;;;;;;;10.30;8.80;;;3.00;99.90;;;;;;5137848;28;20457;-55
2023/03/11 08:09:42;;;;;;;8.47;6.87;;;3.00;99.90;;;;;;5139265;28;20523;-51
2023/03/11 08:12:12;;;;;;;12.03;8.20;;;3.10;99.90;;;;;;5141746;28;20952;-52
2023/03/11 08:14:43;;;;;;;11.37;7.80;;;2.90;99.90;;;;;;5119943;28;20184;-54
2023/03/11 08:17:14;;;;;;;12.20;8.30;;;2.80;99.90;;;;;;5136432;28;20198;-51
2023/03/11 08:19:44;;;;;;;8.57;7.67;;;2.80;99.90;;;;;;5139947;28;20205;-52
2023/03/11 08:22:15;;;;;;;9.07;6.77;;;2.80;99.90;;;;;;5142825;28;20209;-52
2023/03/11 08:24:51;;;;;;;10.10;7.27;;;2.90;99.90;;;;;;5138654;28;20239;-52
2023/03/11 08:27:22;;;;;;;10.40;8.47;;;2.90;99.90;;;;;;5138695;28;20261;-55
2023/03/11 08:29:53;;;;;;;11.63;7.40;;;2.80;99.90;;;;;;5141014;28;20572;-53
2023/03/11 08:32:24;;;;;;;8.00;6.87;;;2.90;99.90;;;;;;5140984;28;20192;-51
2023/03/11 08:34:54;;;;;;;14.53;7.17;;;3.00;99.90;;;;;;5142615;28;20676;-54
2023/03/11 08:37:25;;;;;;;8.13;5.90;;;3.00;99.90;;;;;;5134994;28;20639;-54
2023/03/11 08:39:56;;;;;;;6.97;6.20;;;3.20;99.90;;;;;;5140872;28;20233;-54
2023/03/11 08:42:26;;;;;;;7.40;6.70;;;2.90;99.90;;;;;;5141002;28;20197;-54
2023/03/11 08:44:57;;;;;;;8.80;6.90;;;2.70;99.90;;;;;;5139437;28;20241;-55
2023/03/11 08:47:28;;;;;;;8.00;6.50;;;2.60;99.90;;;;;;5138148;28;20205;-51
2023/03/11 08:49:58;;;;;;;7.07;6.37;;;2.50;99.90;;;;;;5142906;28;20197;-53
2023/03/11 08:52:29;;;;;;;8.53;7.00;;;2.50;99.90;;;;;;5139026;28;20197;-53
2023/03/11 08:55:00;;;;;;;13.80;7.73;;;2.40;99.90;;;;;;5138477;28;20178;-53
2023/03/11 08:57:31;;;;;;;9.33;7.00;;;2.30;99.90;;;;;;5142719;28;20188;-53
2023/03/11 09:00:03;;;;;;;6.93;6.33;;;2.40;99.90;;;;;;5141891;28;20233;-53
2023/03/11 09:02:34;;;;;;;9.17;7.00;;;2.50;99.90;;;;;;5137980;28;20488;-55
2023/03/11 09:05:05;;;;;;;6.87;6.27;;;2.40;99.90;;;;;;5142582;28;20969;-54
2023/03/11 09:07:36;;;;;;;6.50;5.90;;;2.40;99.90;;;;;;5143841;28;20519;-54
2023/03/11 09:10:08;;;;;;;9.17;6.23;;;2.40;99.90;;;;;;5140442;28;20532;-53
2023/03/11 09:12:38;;;;;;;6.83;6.33;;;2.50;99.90;;;;;;5142511;28;20472;-52
2023/03/11 09:15:10;;;;;;;6.20;5.60;;;2.30;99.90;;;;;;5123816;28;20864;-53
2023/03/11 09:17:40;;;;;;;6.30;5.70;;;2.30;99.90;;;;;;5128442;28;20177;-54
2023/03/11 09:20:13;;;;;;;7.10;5.97;;;2.10;99.90;;;;;;5141414;28;20464;-53
2023/03/11 09:22:43;;;;;;;8.53;5.53;;;2.00;99.90;;;;;;5140791;28;20182;-53
2023/03/11 09:25:14;;;;;;;8.60;6.30;;;2.20;99.90;;;;;;5139417;28;20991;-52
2023/03/11 09:27:45;;;;;;;7.90;6.07;;;2.30;99.90;;;;;;5138320;28;20712;-52
2023/03/11 09:30:16;;;;;;;6.30;5.70;;;2.50;99.90;;;;;;5141363;28;21407;-53
2023/03/11 09:32:47;;;;;;;7.27;6.57;;;2.40;99.90;;;;;;5139240;28;20310;-54
2023/03/11 09:35:18;;;;;;;6.70;6.10;;;2.40;99.90;;;;;;5140976;28;20444;-53
2023/03/11 09:37:49;;;;;;;12.30;6.30;;;2.30;99.90;;;;;;5142791;28;20197;-53
2023/03/11 09:40:21;;;;;;;9.07;6.87;;;2.30;99.90;;;;;;5165042;23;21053;-48
2023/03/11 09:42:58;;;;;;;10.83;7.47;;;2.40;99.90;;;;;;5188512;28;20419;-49
2023/03/11 09:45:39;;;;;;;9.50;7.10;;;2.60;99.90;;;;;;5185587;28;20428;-48
2023/03/11 09:48:36;;;;;;;8.90;6.47;;;2.80;99.90;;;;;;5182593;28;20469;-50
2023/03/11 09:51:24;;;;;;;6.90;6.30;;;3.10;99.90;;;;;;5162641;28;20459;-50
2023/03/11 09:54:02;;;;;;;6.20;5.70;;;2.90;99.90;;;;;;5171147;28;20804;-48
2023/03/11 09:56:34;;;;;;;9.77;6.87;;;2.70;99.90;;;;;;5172277;28;20466;-48
2023/03/11 09:59:08;;;;;;;7.43;6.73;;;2.70;99.90;;;;;;5176387;28;20435;-48
2023/03/11 10:01:42;;;;;;;5.93;5.43;;;3.00;99.90;;;;;;5170756;28;20523;-48
2023/03/11 10:04:25;;;;;;;6.13;5.60;;;3.30;99.90;;;;;;5181074;28;20486;-49
2023/03/11 10:07:00;;;;;;;6.43;5.83;;;3.40;99.90;;;;;;5195780;28;20452;-49
2023/03/11 10:09:35;;;;;;;7.00;6.40;;;3.60;99.90;;;;;;5181435;28;20463;-50
2023/03/11 10:12:14;;;;;;;7.00;6.30;;;3.60;99.90;;;;;;5176183;28;20500;-49
2023/03/11 10:15:15;;;;;;;6.80;6.10;;;3.80;99.90;;;;;;5177935;28;20529;-48
2023/03/11 10:17:55;;;;;;;4.60;4.23;;;4.10;99.90;;;;;;5174335;28;20435;-49
2023/03/11 10:20:53;;;;;;;6.00;5.47;;;4.00;99.90;;;;;;5170430;28;20523;-51
2023/03/11 10:23:36;;;;;;;8.87;5.40;;;4.00;99.90;;;;;;5169666;28;20428;-49
2023/03/11 10:26:28;;;;;;;6.07;5.43;;;4.00;99.90;;;;;;5171611;28;21036;-49
2023/03/11 10:29:26;;;;;;;8.00;6.00;;;4.10;99.90;;;;;;5169311;28;20519;-51
2023/03/11 10:32:03;;;;;;;5.80;5.20;;;4.30;99.90;;;;;;5170334;28;20458;-49
2023/03/11 10:35:04;;;;;;;4.73;4.33;;;4.20;99.90;;;;;;5171172;28;20629;-49
2023/03/11 10:37:39;;;;;;;5.70;4.47;;;4.00;99.90;;;;;;5176278;28;20509;-49
2023/03/11 10:40:17;;;;;;;4.83;4.43;;;3.80;99.90;;;;;;5171744;28;21159;-50
2023/03/11 10:42:50;;;;;;;7.00;4.90;;;3.70;99.90;;;;;;5179866;28;20527;-49
2023/03/11 10:45:22;;;;;;;6.17;5.00;;;3.90;99.90;;;;;;5175572;28;20440;-51
2023/03/11 10:47:56;;;;;;;6.47;4.83;;;3.70;99.90;;;;;;5180483;28;20466;-52
2023/03/11 10:50:26;;;;;;;5.23;4.83;;;3.90;99.90;;;;;;5176121;28;20456;-52
2023/03/11 10:53:15;;;;;;;9.50;5.00;;;3.50;99.90;;;;;;5166977;28;20445;-49
2023/03/11 10:55:49;;;;;;;7.03;5.50;;;3.40;99.90;;;;;;5167425;28;20857;-51
2023/03/11 10:58:23;;;;;;;6.73;5.37;;;3.40;99.90;;;;;;5173522;28;20965;-51
2023/03/11 11:01:06;;;;;;;4.77;4.40;;;3.40;99.90;;;;;;5165909;28;20535;-48
2023/03/11 11:03:41;;;;;;;5.10;4.60;;;3.30;99.90;;;;;;5169389;28;20794;-51
2023/03/11 11:06:27;;;;;;;5.63;5.10;;;3.50;99.90;;;;;;5176805;28;20446;-50
2023/03/11 11:09:16;;;;;;;6.03;5.53;;;3.80;99.90;;;;;;5174191;28;20554;-51
2023/03/11 11:12:10;;;;;;;7.13;4.70;;;4.20;99.90;;;;;;5169189;28;20514;-48
2023/03/11 11:14:45;;;;;;;5.80;5.20;;;4.10;99.90;;;;;;5174376;28;20439;-49
2023/03/11 11:17:17;;;;;;;5.17;4.70;;;4.00;99.90;;;;;;5169275;28;20439;-49
2023/03/11 11:19:49;;;;;;;6.27;5.27;;;4.00;99.90;;;;;;5178048;28;20921;-50
2023/03/11 11:22:22;;;;;;;5.60;5.10;;;4.10;99.90;;;;;;5181668;28;20928;-49
2023/03/11 11:24:54;;;;;;;10.60;5.70;;;4.00;99.90;;;;;;5171055;28;20433;-50
2023/03/11 11:27:28;;;;;;;5.20;4.70;;;3.90;99.90;;;;;;5181221;28;20435;-49
2023/03/11 11:30:16;;;;;;;6.00;5.50;;;3.90;99.90;;;;;;5169176;28;20802;-50
2023/03/11 11:32:46;;;;;;;7.00;5.80;;;4.00;99.90;;;;;;5169212;28;20434;-49
2023/03/11 11:35:18;;;;;;;7.57;5.60;;;4.40;99.90;;;;;;5175101;28;20519;-50
2023/03/11 11:37:53;;;;;;;7.03;5.07;;;4.10;99.90;;;;;;5174079;28;20649;-49
2023/03/11 11:40:29;;;;;;;9.50;6.03;;;4.10;99.90;;;;;;5177395;28;20462;-49
2023/03/11 11:43:13;;;;;;;5.93;5.33;;;4.10;99.90;;;;;;5171093;28;20549;-50
2023/03/11 11:46:01;;;;;;;6.57;5.97;;;4.40;99.90;;;;;;5176865;28;20463;-50
2023/03/11 11:48:55;;;;;;;9.33;7.33;;;4.30;99.90;;;;;;5170548;28;20464;-50
2023/03/11 11:51:34;;;;;;;6.53;5.93;;;4.50;99.90;;;;;;5172984;28;20513;-49
2023/03/11 11:54:23;;;;;;;6.90;6.30;;;4.20;99.90;;;;;;5174469;28;20495;-48
2023/03/11 11:56:55;;;;;;;6.23;5.63;;;4.00;99.90;;;;;;5175382;28;20524;-50
2023/03/11 11:59:30;;;;;;;9.70;6.50;;;4.00;99.90;;;;;;5167801;28;20458;-50
2023/03/11 12:02:32;;;;;;;8.60;6.80;;;4.20;99.90;;;;;;5175358;28;20545;-51
2023/03/11 12:05:24;;;;;;;5.80;5.30;;;4.50;99.90;;;;;;5171030;28;20449;-49
2023/03/11 12:08:16;;;;;;;7.60;5.97;;;4.90;99.90;;;;;;5180593;28;20472;-51
2023/03/11 12:11:07;;;;;;;7.93;6.90;;;4.80;99.90;;;;;;5168686;28;20468;-50
2023/03/11 12:14:06;;;;;;;10.80;6.80;;;4.70;99.90;;;;;;5162205;28;23336;-50
2023/03/11 12:17:06;;;;;;;10.00;7.13;;;4.70;99.90;;;;;;5164028;28;20452;-49
2023/03/11 12:19:53;;;;;;;6.50;5.90;;;4.30;99.90;;;;;;5160916;28;20446;-50
2023/03/11 12:22:45;;;;;;;6.73;6.00;;;4.30;99.90;;;;;;5160381;28;20457;-51
2023/03/11 12:25:29;;;;;;;8.80;5.30;;;4.30;99.90;;;;;;5160205;28;20442;-49
2023/03/11 12:28:08;;;;;;;6.73;5.33;;;4.30;99.90;;;;;;5164531;28;20460;-49
2023/03/11 12:30:52;;;;;;;5.80;5.37;;;4.00;99.90;;;;;;5160943;28;20845;-50
2023/03/11 12:33:54;;;;;;;9.80;6.20;;;4.10;99.90;;;;;;5162844;28;20448;-51
2023/03/11 12:36:32;;;;;;;8.03;6.83;;;4.10;99.90;;;;;;5165804;28;20439;-52
2023/03/11 12:39:06;;;;;;;17.90;9.73;;;4.20;99.90;;;;;;5165141;28;20517;-51
2023/03/11 12:41:41;;;;;;;8.90;7.47;;;4.00;99.90;;;;;;5161837;28;20600;-51
2023/03/11 12:44:25;;;;;;;10.17;7.83;;;3.90;99.90;;;;;;5161582;28;20584;-51
2023/03/11 12:46:58;;;;;;;10.10;7.60;;;3.80;99.90;;;;;;5145551;28;20446;-49
2023/03/11 12:49:34;;;;;;;12.50;8.67;;;4.00;99.90;;;;;;5158462;28;20575;-50
2023/03/11 12:52:14;;;;;;;5.97;5.37;;;4.00;99.90;;;;;;5157777;28;20475;-50
2023/03/11 12:55:16;;;;;;;6.73;6.10;;;4.10;99.90;;;;;;5162521;28;20938;-50
2023/03/11 12:57:47;;;;;;;7.07;5.70;;;4.30;99.90;;;;;;5162627;28;20474;-50
2023/03/11 13:00:21;;;;;;;6.17;5.57;;;4.30;99.90;;;;;;5157544;28;21555;-50
2023/03/11 13:03:00;;;;;;;9.30;5.17;;;4.30;99.90;;;;;;5156451;28;20611;-46
2023/03/11 13:05:54;;;;;;;8.13;6.97;;;4.50;99.90;;;;;;5164215;28;20522;-48
2023/03/11 13:08:42;;;;;;;5.60;5.20;;;4.50;99.90;;;;;;5166456;28;20819;-50
2023/03/11 13:11:31;;;;;;;5.73;5.10;;;4.40;99.90;;;;;;5164367;28;20929;-48
2023/03/11 13:14:17;;;;;;;6.87;5.43;;;4.10;99.90;;;;;;5169025;28;20451;-49
2023/03/11 13:16:48;;;;;;;5.87;5.27;;;3.90;99.90;;;;;;5178675;28;20448;-50
2023/03/11 13:19:49;;;;;;;9.80;5.60;;;3.70;99.90;;;;;;5166657;28;20792;-49
2023/03/11 13:22:42;;;;;;;6.50;5.90;;;3.60;99.90;;;;;;5165390;28;21168;-52
2023/03/11 13:25:52;;;;;;;7.00;5.37;;;3.80;99.90;;;;;;5169382;28;20961;-49
2023/03/11 13:28:53;;;;;;;10.07;6.30;;;3.80;99.90;;;;;;5166031;28;20969;-50